createdAt,value
2023-05-26T00:00:52.501Z,8.80
2023-05-26T00:01:52.488Z,8.90
2023-05-26T00:02:52.590Z,8.90
2023-05-26T00:03:52.517Z,8.90
2023-05-26T00:04:52.474Z,9.30
2023-05-26T00:05:52.459Z,8.60
2023-05-26T00:06:52.474Z,8.80
2023-05-26T00:07:52.467Z,8.80
2023-05-26T00:08:52.446Z,9.20
2023-05-26T00:09:52.433Z,9.00
2023-05-26T00:10:52.414Z,8.90
2023-05-26T00:11:52.433Z,9.30
2023-05-26T00:12:52.461Z,9.00
2023-05-26T00:13:52.406Z,8.80
2023-05-26T00:14:52.400Z,8.30
2023-05-26T00:15:52.399Z,8.50
2023-05-26T00:16:52.392Z,8.60
2023-05-26T00:17:52.439Z,8.40
2023-05-26T00:18:52.361Z,8.40
2023-05-26T00:19:52.373Z,8.90
2023-05-26T00:20:52.343Z,8.40
2023-05-26T00:21:52.370Z,8.00
2023-05-26T00:22:52.341Z,8.40
2023-05-26T00:23:52.315Z,9.00
2023-05-26T00:24:52.323Z,8.60
2023-05-26T00:25:52.315Z,9.00
2023-05-26T00:26:52.314Z,8.70
2023-05-26T00:27:52.286Z,9.10
2023-05-26T00:28:52.287Z,8.70
2023-05-26T00:29:52.266Z,8.60
2023-05-26T00:30:52.295Z,8.80
2023-05-26T00:31:52.394Z,8.70
2023-05-26T00:32:52.307Z,8.80
2023-05-26T00:33:52.240Z,8.40
2023-05-26T00:34:52.258Z,8.70
2023-05-26T00:35:52.256Z,8.20
2023-05-26T00:36:52.236Z,8.80
2023-05-26T00:37:52.230Z,7.90
2023-05-26T00:38:52.192Z,8.30
2023-05-26T00:39:52.186Z,8.30
2023-05-26T00:40:52.261Z,8.40
2023-05-26T00:41:52.195Z,8.50
2023-05-26T00:42:52.181Z,8.50
2023-05-26T00:43:52.167Z,8.30
2023-05-26T00:44:52.186Z,8.70
2023-05-26T00:45:52.179Z,8.30
2023-05-26T00:46:52.160Z,8.60
2023-05-26T00:47:52.165Z,8.70
2023-05-26T00:48:52.119Z,8.50
2023-05-26T00:49:52.137Z,8.30
2023-05-26T00:50:53.100Z,8.70
2023-05-26T00:51:52.122Z,8.60
2023-05-26T00:52:52.102Z,8.90
2023-05-26T00:53:52.082Z,8.80
2023-05-26T00:54:52.101Z,7.80
2023-05-26T00:55:52.077Z,8.90
2023-05-26T00:56:52.079Z,8.50
2023-05-26T00:57:52.063Z,8.80
2023-05-26T00:58:52.073Z,8.90
2023-05-26T00:59:52.074Z,8.70
2023-05-26T01:00:52.075Z,8.50
2023-05-26T01:01:52.021Z,9.10
2023-05-26T01:02:52.053Z,8.90
2023-05-26T01:03:52.152Z,8.80
2023-05-26T01:04:52.001Z,8.80
2023-05-26T01:05:51.994Z,8.50
2023-05-26T01:06:51.997Z,8.70
2023-05-26T01:07:52.044Z,8.50
2023-05-26T01:08:51.999Z,8.50
2023-05-26T01:09:52.003Z,8.70
2023-05-26T01:10:51.949Z,8.80
2023-05-26T01:11:51.974Z,8.70
2023-05-26T01:12:51.963Z,8.60
2023-05-26T01:13:51.971Z,8.80
2023-05-26T01:14:51.937Z,8.60
2023-05-26T01:15:51.936Z,8.60
2023-05-26T01:16:51.929Z,8.50
2023-05-26T01:17:52.024Z,8.20
2023-05-26T01:18:51.902Z,8.50
2023-05-26T01:19:51.904Z,8.70
2023-05-26T01:20:51.900Z,8.20
2023-05-26T01:21:51.883Z,7.90
2023-05-26T01:22:52.031Z,8.10
2023-05-26T01:23:51.856Z,8.70
2023-05-26T01:24:51.866Z,8.40
2023-05-26T01:25:51.842Z,8.70
2023-05-26T01:26:51.829Z,8.00
2023-05-26T01:27:51.860Z,8.80
2023-05-26T01:28:51.829Z,8.40
2023-05-26T01:29:51.816Z,8.40
2023-05-26T01:30:51.809Z,8.40
2023-05-26T01:31:51.796Z,8.40
2023-05-26T01:32:51.898Z,8.60
2023-05-26T01:33:51.806Z,8.50
2023-05-26T01:34:51.811Z,8.70
2023-05-26T01:35:51.770Z,8.40
2023-05-26T01:36:51.776Z,8.10
2023-05-26T01:37:51.778Z,8.40
2023-05-26T01:38:51.751Z,8.60
2023-05-26T01:39:51.736Z,8.60
2023-05-26T01:40:51.734Z,8.50
2023-05-26T01:41:51.769Z,8.40
2023-05-26T01:42:51.742Z,8.70
2023-05-26T01:43:51.713Z,8.40
2023-05-26T01:44:51.703Z,8.50
2023-05-26T01:45:51.731Z,8.30
2023-05-26T01:46:51.732Z,8.60
2023-05-26T01:47:51.701Z,8.60
2023-05-26T01:48:51.688Z,8.70
2023-05-26T01:49:51.660Z,8.40
2023-05-26T01:50:51.663Z,8.00
2023-05-26T01:51:51.678Z,9.40
2023-05-26T01:52:51.649Z,8.70
2023-05-26T01:53:51.638Z,8.90
2023-05-26T01:54:51.629Z,10.00
2023-05-26T01:55:51.649Z,9.20
2023-05-26T01:56:51.643Z,9.60
2023-05-26T01:57:51.607Z,9.90
2023-05-26T01:58:51.608Z,9.70
2023-05-26T01:59:51.593Z,10.00
2023-05-26T02:00:51.618Z,10.00
2023-05-26T02:01:51.639Z,9.80
2023-05-26T02:02:51.682Z,10.10
2023-05-26T02:03:51.660Z,9.80
2023-05-26T02:04:52.563Z,9.90
2023-05-26T02:05:51.609Z,9.60
2023-05-26T02:06:51.530Z,9.80
2023-05-26T02:07:51.531Z,10.10
2023-05-26T02:08:51.510Z,10.10
2023-05-26T02:09:51.522Z,10.30
2023-05-26T02:10:51.536Z,9.40
2023-05-26T02:11:51.483Z,9.50
2023-05-26T02:12:51.478Z,9.60
2023-05-26T02:13:51.482Z,9.70
2023-05-26T02:14:51.495Z,9.80
2023-05-26T02:15:51.509Z,9.90
2023-05-26T02:16:51.455Z,9.70
2023-05-26T02:17:51.483Z,10.00
2023-05-26T02:18:51.441Z,9.80
2023-05-26T02:19:51.455Z,9.40
2023-05-26T02:20:51.420Z,9.70
2023-05-26T02:21:51.407Z,10.00
2023-05-26T02:22:51.411Z,10.00
2023-05-26T02:23:51.407Z,10.20
2023-05-26T02:24:51.419Z,9.60
2023-05-26T02:25:51.405Z,10.30
2023-05-26T02:26:51.373Z,10.60
2023-05-26T02:27:51.370Z,10.00
2023-05-26T02:28:51.446Z,10.00
2023-05-26T02:29:52.372Z,10.30
2023-05-26T02:30:51.350Z,10.40
2023-05-26T02:31:51.355Z,10.50
2023-05-26T02:32:51.378Z,10.40
2023-05-26T02:33:51.361Z,10.20
2023-05-26T02:34:51.346Z,10.70
2023-05-26T02:35:51.306Z,10.50
2023-05-26T02:36:51.293Z,10.60
2023-05-26T02:37:51.294Z,10.90
2023-05-26T02:38:51.297Z,10.30
2023-05-26T02:39:51.272Z,10.40
2023-05-26T02:40:51.297Z,10.40
2023-05-26T02:41:51.257Z,10.00
2023-05-26T02:42:51.277Z,10.80
2023-05-26T02:43:51.276Z,10.60
2023-05-26T02:44:51.237Z,10.70
2023-05-26T02:45:51.272Z,9.80
2023-05-26T02:46:51.215Z,10.20
2023-05-26T02:47:51.244Z,10.30
2023-05-26T02:48:51.248Z,10.30
2023-05-26T02:49:51.193Z,10.40
2023-05-26T02:50:51.183Z,10.30
2023-05-26T02:51:51.178Z,9.70
2023-05-26T02:52:51.199Z,9.80
2023-05-26T02:53:51.164Z,10.30
2023-05-26T02:54:51.202Z,10.40
2023-05-26T02:55:51.160Z,10.20
2023-05-26T02:56:51.132Z,10.30
2023-05-26T02:57:51.172Z,10.50
2023-05-26T02:58:51.132Z,10.10
2023-05-26T02:59:51.134Z,10.10
2023-05-26T03:00:51.129Z,10.40
2023-05-26T03:01:51.272Z,9.90
2023-05-26T03:02:51.191Z,9.70
2023-05-26T03:03:51.134Z,10.10
2023-05-26T03:04:51.095Z,9.80
2023-05-26T03:05:51.087Z,10.00
2023-05-26T03:06:51.101Z,9.80
2023-05-26T03:07:51.055Z,10.30
2023-05-26T03:08:51.064Z,9.80
2023-05-26T03:09:51.047Z,9.80
2023-05-26T03:11:10.656Z,9.70
2023-05-26T03:11:52.053Z,10.40
2023-05-26T03:12:51.051Z,10.00
2023-05-26T03:13:51.018Z,10.20
2023-05-26T03:14:51.022Z,10.30
2023-05-26T03:15:51.037Z,10.20
2023-05-26T03:16:51.064Z,10.60
2023-05-26T03:17:51.026Z,9.80
2023-05-26T03:18:50.991Z,9.90
2023-05-26T03:19:50.979Z,9.90
2023-05-26T03:20:51.000Z,10.10
2023-05-26T03:21:50.956Z,9.80
2023-05-26T03:22:52.024Z,10.30
2023-05-26T03:23:50.940Z,10.00
2023-05-26T03:24:50.949Z,10.40
2023-05-26T03:25:50.948Z,9.70
2023-05-26T03:26:50.904Z,10.00
2023-05-26T03:27:50.928Z,9.80
2023-05-26T03:28:50.894Z,9.30
2023-05-26T03:29:50.900Z,9.50
2023-05-26T03:30:50.926Z,9.80
2023-05-26T03:31:51.025Z,9.40
2023-05-26T03:32:50.916Z,9.00
2023-05-26T03:33:50.863Z,8.90
2023-05-26T03:34:50.884Z,9.20
2023-05-26T03:35:50.873Z,9.30
2023-05-26T03:36:50.838Z,9.40
2023-05-26T03:37:50.841Z,9.60
2023-05-26T03:38:50.836Z,9.00
2023-05-26T03:39:50.841Z,9.00
2023-05-26T03:40:50.845Z,9.20
2023-05-26T03:41:50.809Z,8.80
2023-05-26T03:42:50.805Z,8.70
2023-05-26T03:43:50.808Z,8.70
2023-05-26T03:44:50.807Z,9.00
2023-05-26T03:45:50.770Z,9.10
2023-05-26T03:46:50.816Z,8.80
2023-05-26T03:47:50.818Z,9.20
2023-05-26T03:48:50.773Z,8.90
2023-05-26T03:49:50.768Z,8.90
2023-05-26T03:50:50.735Z,9.20
2023-05-26T03:51:50.766Z,9.10
2023-05-26T03:52:50.716Z,9.10
2023-05-26T03:53:50.719Z,9.00
2023-05-26T03:54:50.731Z,9.20
2023-05-26T03:55:50.698Z,9.40
2023-05-26T03:56:50.699Z,9.10
2023-05-26T03:57:50.697Z,8.70
2023-05-26T03:58:50.779Z,8.70
2023-05-26T03:59:50.698Z,8.50
2023-05-26T04:00:50.656Z,9.10
2023-05-26T04:01:50.775Z,8.80
2023-05-26T04:02:50.761Z,8.80
2023-05-26T04:03:50.700Z,9.00
2023-05-26T04:04:50.659Z,8.70
2023-05-26T04:05:50.627Z,9.30
2023-05-26T04:06:50.613Z,9.20
2023-05-26T04:07:50.610Z,9.20
2023-05-26T04:08:50.623Z,9.00
2023-05-26T04:09:50.627Z,8.80
2023-05-26T04:10:50.633Z,8.70
2023-05-26T04:11:50.588Z,8.50
2023-05-26T04:12:50.580Z,8.70
2023-05-26T04:13:50.599Z,8.40
2023-05-26T04:14:50.564Z,8.30
2023-05-26T04:15:50.544Z,8.30
2023-05-26T04:16:50.586Z,8.30
2023-05-26T04:17:50.611Z,8.30
2023-05-26T04:18:50.580Z,8.60
2023-05-26T04:19:50.511Z,8.60
2023-05-26T04:20:50.569Z,8.50
2023-05-26T04:21:50.505Z,9.00
2023-05-26T04:22:50.541Z,8.90
2023-05-26T04:23:50.522Z,9.10
2023-05-26T04:24:50.513Z,9.40
2023-05-26T04:25:50.479Z,9.60
2023-05-26T04:26:50.464Z,9.60
2023-05-26T04:27:50.507Z,9.20
2023-05-26T04:28:50.462Z,9.70
2023-05-26T04:29:50.444Z,9.20
2023-05-26T04:30:50.425Z,9.20
2023-05-26T04:31:50.522Z,9.10
2023-05-26T04:32:50.483Z,9.10
2023-05-26T04:33:50.406Z,9.30
2023-05-26T04:34:50.453Z,9.50
2023-05-26T04:35:50.396Z,9.10
2023-05-26T04:36:50.420Z,9.50
2023-05-26T04:37:50.410Z,9.10
2023-05-26T04:38:50.376Z,8.80
2023-05-26T04:39:50.371Z,9.20
2023-05-26T04:40:50.356Z,9.30
2023-05-26T04:41:50.381Z,9.00
2023-05-26T04:42:50.339Z,9.00
2023-05-26T04:43:50.352Z,9.30
2023-05-26T04:44:50.351Z,9.40
2023-05-26T04:45:50.518Z,9.00
2023-05-26T04:46:51.347Z,9.30
2023-05-26T04:47:50.335Z,9.40
2023-05-26T04:48:50.298Z,9.00
2023-05-26T04:49:50.298Z,9.40
2023-05-26T04:50:50.327Z,8.80
2023-05-26T04:51:50.301Z,9.20
2023-05-26T04:52:50.272Z,8.90
2023-05-26T04:53:50.261Z,8.90
2023-05-26T04:54:50.254Z,9.10
2023-05-26T04:55:50.274Z,9.30
2023-05-26T04:56:50.238Z,9.20
2023-05-26T04:57:50.231Z,9.10
2023-05-26T04:58:50.223Z,8.90
2023-05-26T04:59:50.232Z,9.00
2023-05-26T05:00:50.235Z,9.00
2023-05-26T05:01:50.235Z,8.70
2023-05-26T05:02:50.231Z,8.60
2023-05-26T05:03:50.257Z,9.00
2023-05-26T05:04:50.188Z,8.80
2023-05-26T05:05:50.192Z,8.70
2023-05-26T05:06:50.162Z,8.80
2023-05-26T05:07:50.164Z,9.30
2023-05-26T05:08:50.140Z,9.10
2023-05-26T05:09:50.154Z,9.00
2023-05-26T05:10:50.149Z,9.20
2023-05-26T05:11:50.123Z,8.70
2023-05-26T05:12:50.120Z,8.90
2023-05-26T05:13:50.115Z,9.30
2023-05-26T05:14:50.130Z,9.50
2023-05-26T05:15:50.116Z,9.50
2023-05-26T05:16:50.102Z,9.80
2023-05-26T05:17:50.089Z,9.60
2023-05-26T05:18:50.064Z,10.00
2023-05-26T05:19:58.977Z,9.40
2023-05-26T05:20:52.127Z,9.60
2023-05-26T05:21:50.048Z,9.80
2023-05-26T05:22:50.060Z,9.60
2023-05-26T05:23:50.049Z,9.50
2023-05-26T05:24:50.055Z,9.70
2023-05-26T05:25:50.011Z,10.20
2023-05-26T05:26:50.001Z,10.10
2023-05-26T05:27:50.003Z,9.80
2023-05-26T05:28:50.019Z,10.20
2023-05-26T05:29:49.999Z,10.50
2023-05-26T05:30:50.219Z,10.40
2023-05-26T05:31:50.012Z,10.80
2023-05-26T05:32:50.021Z,10.40
2023-05-26T05:33:49.977Z,10.30
2023-05-26T05:34:49.955Z,10.30
2023-05-26T05:35:51.591Z,10.50
2023-05-26T05:36:49.931Z,10.60
2023-05-26T05:37:49.972Z,10.40
2023-05-26T05:38:49.954Z,9.90
2023-05-26T05:39:49.920Z,10.40
2023-05-26T05:40:49.912Z,10.40
2023-05-26T05:41:49.904Z,10.80
2023-05-26T05:42:49.937Z,10.40
2023-05-26T05:43:49.885Z,9.90
2023-05-26T05:44:49.870Z,10.10
2023-05-26T05:45:49.878Z,10.40
2023-05-26T05:46:49.955Z,10.70
2023-05-26T05:47:50.927Z,10.60
2023-05-26T05:48:49.841Z,10.10
2023-05-26T05:49:49.853Z,10.80
2023-05-26T05:50:49.826Z,10.50
2023-05-26T05:51:49.845Z,11.00
2023-05-26T05:52:49.843Z,10.20
2023-05-26T05:53:49.802Z,10.20
2023-05-26T05:54:49.822Z,10.60
2023-05-26T05:55:49.801Z,10.90
2023-05-26T05:56:50.239Z,11.10
2023-05-26T05:57:49.771Z,10.70
2023-05-26T05:58:49.772Z,10.10
2023-05-26T05:59:49.784Z,10.30
2023-05-26T06:00:49.746Z,10.60
2023-05-26T06:01:49.785Z,10.70
2023-05-26T06:02:49.837Z,10.30
2023-05-26T06:03:49.896Z,10.70
2023-05-26T06:04:49.727Z,11.00
2023-05-26T06:05:49.720Z,10.60
2023-05-26T06:06:49.744Z,10.00
2023-05-26T06:07:49.701Z,10.60
2023-05-26T06:08:49.704Z,11.00
2023-05-26T06:09:50.677Z,10.60
2023-05-26T06:10:49.712Z,10.90
2023-05-26T06:11:49.685Z,11.30
2023-05-26T06:12:49.663Z,11.10
2023-05-26T06:13:49.650Z,10.70
2023-05-26T06:14:49.639Z,11.00
2023-05-26T06:15:49.661Z,10.70
2023-05-26T06:16:50.706Z,11.00
2023-05-26T06:17:49.654Z,10.70
2023-05-26T06:18:49.606Z,10.40
2023-05-26T06:19:49.610Z,10.50
2023-05-26T06:20:49.855Z,10.80
2023-05-26T06:21:49.592Z,10.60
2023-05-26T06:22:49.582Z,11.10
2023-05-26T06:23:49.566Z,10.90
2023-05-26T06:24:49.570Z,11.10
2023-05-26T06:25:49.577Z,11.40
2023-05-26T06:26:49.550Z,11.30
2023-05-26T06:27:49.537Z,10.80
2023-05-26T06:28:49.535Z,11.20
2023-05-26T06:29:49.547Z,11.20
2023-05-26T06:30:49.544Z,11.10
2023-05-26T06:31:49.579Z,10.40
2023-05-26T06:32:49.532Z,10.50
2023-05-26T06:33:49.499Z,10.90
2023-05-26T06:34:49.510Z,10.60
2023-05-26T06:35:49.484Z,11.00
2023-05-26T06:36:49.472Z,10.50
2023-05-26T06:37:49.467Z,10.90
2023-05-26T06:38:50.465Z,10.50
2023-05-26T06:39:49.477Z,10.70
2023-05-26T06:40:49.438Z,10.60
2023-05-26T06:41:49.439Z,10.70
2023-05-26T06:42:49.432Z,10.70
2023-05-26T06:43:49.441Z,10.50
2023-05-26T06:44:51.494Z,10.20
2023-05-26T06:45:50.404Z,10.40
2023-05-26T06:46:49.424Z,9.80
2023-05-26T06:47:49.399Z,9.90
2023-05-26T06:48:49.415Z,10.00
2023-05-26T06:49:49.367Z,10.60
2023-05-26T06:50:49.361Z,10.70
2023-05-26T06:51:49.356Z,10.10
2023-05-26T06:52:49.349Z,10.20
2023-05-26T06:53:49.374Z,10.00
2023-05-26T06:54:49.337Z,10.50
2023-05-26T06:55:49.324Z,10.30
2023-05-26T06:56:49.331Z,10.10
2023-05-26T06:57:49.359Z,10.10
2023-05-26T06:58:49.329Z,10.30
2023-05-26T06:59:49.310Z,9.80
2023-05-26T07:00:49.291Z,10.00
2023-05-26T07:01:49.303Z,10.20
2023-05-26T07:02:49.367Z,9.90
2023-05-26T07:03:49.262Z,9.70
2023-05-26T07:04:49.253Z,9.80
2023-05-26T07:05:57.082Z,10.20
2023-05-26T07:06:51.339Z,9.80
2023-05-26T07:07:49.270Z,9.90
2023-05-26T07:08:49.221Z,9.40
2023-05-26T07:09:49.211Z,9.90
2023-05-26T07:10:49.208Z,9.60
2023-05-26T07:11:49.206Z,9.80
2023-05-26T07:12:49.219Z,9.70
2023-05-26T07:13:49.191Z,10.00
2023-05-26T07:14:49.171Z,10.00
2023-05-26T07:15:49.208Z,10.00
2023-05-26T07:16:49.243Z,9.40
2023-05-26T07:17:49.207Z,9.30
2023-05-26T07:18:49.151Z,9.70
2023-05-26T07:19:49.165Z,9.80
2023-05-26T07:20:49.632Z,9.40
2023-05-26T07:21:49.149Z,8.90
2023-05-26T07:22:49.111Z,9.00
2023-05-26T07:23:49.119Z,8.80
2023-05-26T07:24:49.132Z,9.50
2023-05-26T07:25:49.092Z,9.20
2023-05-26T07:26:49.116Z,9.80
2023-05-26T07:27:49.079Z,9.50
2023-05-26T07:28:49.073Z,10.10
2023-05-26T07:29:49.073Z,9.70
2023-05-26T07:30:49.123Z,9.20
2023-05-26T07:31:49.118Z,9.40
2023-05-26T07:32:49.098Z,9.60
2023-05-26T07:33:49.039Z,9.20
2023-05-26T07:34:49.020Z,9.60
2023-05-26T07:35:49.233Z,9.60
2023-05-26T07:36:49.005Z,9.20
2023-05-26T07:37:48.992Z,9.50
2023-05-26T07:38:49.018Z,9.80
2023-05-26T07:39:48.978Z,9.80
2023-05-26T07:40:49.002Z,10.10
2023-05-26T07:41:51.137Z,9.60
2023-05-26T07:42:48.953Z,9.30
2023-05-26T07:43:48.951Z,9.60
2023-05-26T07:44:48.990Z,9.60
2023-05-26T07:45:49.282Z,9.60
2023-05-26T07:46:49.014Z,9.70
2023-05-26T07:47:48.948Z,10.00
2023-05-26T07:48:48.916Z,9.60
2023-05-26T07:49:48.976Z,9.80
2023-05-26T07:50:48.910Z,9.70
2023-05-26T07:51:48.900Z,9.60
2023-05-26T07:52:48.872Z,8.80
2023-05-26T07:53:48.924Z,9.30
2023-05-26T07:54:48.904Z,9.40
2023-05-26T07:55:49.112Z,9.50
2023-05-26T07:56:48.842Z,9.20
2023-05-26T07:57:48.854Z,9.20
2023-05-26T07:58:48.865Z,9.20
2023-05-26T07:59:49.837Z,8.80
2023-05-26T08:00:48.831Z,8.10
2023-05-26T08:01:48.854Z,9.00
2023-05-26T08:02:48.895Z,9.20
2023-05-26T08:03:49.007Z,8.70
2023-05-26T08:04:48.803Z,9.30
2023-05-26T08:05:49.128Z,8.40
2023-05-26T08:06:48.777Z,8.30
2023-05-26T08:07:48.765Z,8.50
2023-05-26T08:08:48.776Z,8.50
2023-05-26T08:09:48.747Z,8.50
2023-05-26T08:10:48.737Z,7.90
2023-05-26T08:11:48.727Z,8.20
2023-05-26T08:12:48.754Z,8.20
2023-05-26T08:13:48.764Z,8.40
2023-05-26T08:14:48.715Z,7.60
2023-05-26T08:15:49.156Z,8.40
2023-05-26T08:16:48.698Z,8.20
2023-05-26T08:17:48.820Z,8.20
2023-05-26T08:18:48.688Z,8.00
2023-05-26T08:19:48.672Z,8.70
2023-05-26T08:20:50.213Z,8.10
2023-05-26T08:21:48.663Z,8.70
2023-05-26T08:22:48.724Z,8.30
2023-05-26T08:23:48.659Z,8.30
2023-05-26T08:24:48.641Z,7.70
2023-05-26T08:25:48.628Z,7.90
2023-05-26T08:26:48.627Z,8.00
2023-05-26T08:27:48.645Z,8.40
2023-05-26T08:28:48.636Z,8.00
2023-05-26T08:29:48.604Z,7.80
2023-05-26T08:30:48.607Z,8.10
2023-05-26T08:31:48.724Z,7.60
2023-05-26T08:32:48.643Z,7.90
2023-05-26T08:33:48.582Z,7.60
2023-05-26T08:34:48.574Z,7.70
2023-05-26T08:35:51.262Z,7.20
2023-05-26T08:36:49.592Z,7.70
2023-05-26T08:37:48.576Z,7.80
2023-05-26T08:38:48.538Z,8.20
2023-05-26T08:39:48.550Z,7.70
2023-05-26T08:40:48.520Z,7.60
2023-05-26T08:41:48.594Z,7.80
2023-05-26T08:42:48.511Z,7.80
2023-05-26T08:43:55.850Z,7.60
2023-05-26T08:44:50.552Z,7.20
2023-05-26T08:45:48.669Z,7.30
2023-05-26T08:46:48.511Z,7.80
2023-05-26T08:47:49.045Z,7.20
2023-05-26T08:48:48.457Z,7.10
2023-05-26T08:49:48.449Z,7.40
2023-05-26T08:50:48.494Z,7.50
2023-05-26T08:51:48.492Z,7.10
2023-05-26T08:53:05.023Z,6.90
2023-05-26T08:53:50.421Z,7.50
2023-05-26T08:54:48.413Z,7.20
2023-05-26T08:55:48.602Z,6.80
2023-05-26T08:56:48.396Z,7.10
2023-05-26T08:57:48.406Z,6.80
2023-05-26T08:58:48.379Z,7.20
2023-05-26T08:59:48.382Z,7.30
2023-05-26T09:00:48.684Z,6.70
2023-05-26T09:01:48.430Z,6.80
2023-05-26T09:02:48.430Z,7.10
2023-05-26T09:03:48.394Z,6.80
2023-05-26T09:04:48.342Z,7.30
2023-05-26T09:05:48.371Z,6.50
2023-05-26T09:06:58.555Z,6.70
2023-05-26T09:07:49.308Z,6.80
2023-05-26T09:08:48.307Z,6.70
2023-05-26T09:09:48.316Z,6.50
2023-05-26T09:10:48.531Z,6.70
2023-05-26T09:12:50.267Z,6.80
2023-05-26T09:13:48.258Z,7.00
2023-05-26T09:14:48.292Z,7.00
2023-05-26T09:15:48.238Z,7.40
2023-05-26T09:16:48.259Z,6.60
2023-05-26T09:17:48.236Z,6.70
2023-05-26T09:18:48.245Z,6.70
2023-05-26T09:19:48.242Z,6.60
2023-05-26T09:20:48.599Z,6.60
2023-05-26T09:21:48.197Z,6.80
2023-05-26T09:22:48.201Z,7.00
2023-05-26T09:23:51.122Z,6.70
2023-05-26T09:24:48.213Z,6.20
2023-05-26T09:25:48.261Z,6.50
2023-05-26T09:26:48.162Z,6.60
2023-05-26T09:27:48.159Z,6.50
2023-05-26T09:28:48.179Z,6.60
2023-05-26T09:29:48.145Z,7.20
2023-05-26T09:30:48.206Z,6.50
2023-05-26T09:31:48.127Z,6.60
2023-05-26T09:32:48.141Z,6.60
2023-05-26T09:33:48.141Z,6.40
2023-05-26T09:34:48.112Z,6.80
2023-05-26T09:35:48.096Z,6.70
2023-05-26T09:36:48.101Z,6.60
2023-05-26T09:37:48.096Z,6.50
2023-05-26T09:38:48.101Z,6.80
2023-05-26T09:39:48.068Z,6.90
2023-05-26T09:40:48.070Z,6.60
2023-05-26T09:41:48.081Z,7.10
2023-05-26T09:42:48.100Z,7.00
2023-05-26T09:43:48.061Z,7.20
2023-05-26T09:44:48.055Z,7.10
2023-05-26T09:45:48.043Z,6.60
2023-05-26T09:46:48.056Z,7.10
2023-05-26T09:47:48.062Z,6.60
2023-05-26T09:48:48.002Z,6.50
2023-05-26T09:49:48.000Z,6.60
2023-05-26T09:50:48.045Z,6.50
2023-05-26T09:51:54.093Z,6.10
2023-05-26T09:52:49.988Z,6.30
2023-05-26T09:53:47.974Z,6.50
2023-05-26T09:54:47.967Z,6.00
2023-05-26T09:55:47.946Z,6.40
2023-05-26T09:56:47.973Z,6.80
2023-05-26T09:57:47.968Z,6.30
2023-05-26T09:58:47.924Z,6.00
2023-05-26T09:59:47.920Z,6.30
2023-05-26T10:00:47.921Z,6.10
2023-05-26T10:01:48.017Z,6.40
2023-05-26T10:02:47.956Z,6.10
2023-05-26T10:03:48.905Z,6.20
2023-05-26T10:04:47.932Z,6.00
2023-05-26T10:05:47.871Z,5.50
2023-05-26T10:06:47.898Z,5.90
2023-05-26T10:07:47.859Z,5.60
2023-05-26T10:08:47.861Z,5.20
2023-05-26T10:09:47.876Z,5.70
2023-05-26T10:10:47.913Z,5.40
2023-05-26T10:12:47.824Z,5.30
2023-05-26T10:13:47.814Z,5.50
2023-05-26T10:14:47.830Z,5.10
2023-05-26T10:15:47.821Z,5.30
2023-05-26T10:16:47.889Z,5.10
2023-05-26T10:17:47.838Z,5.40
2023-05-26T10:18:47.788Z,5.30
2023-05-26T10:19:47.789Z,5.40
2023-05-26T10:20:47.866Z,5.80
2023-05-26T10:21:47.793Z,5.60
2023-05-26T10:22:47.750Z,5.90
2023-05-26T10:23:47.754Z,5.80
2023-05-26T10:24:47.746Z,6.10
2023-05-26T10:25:47.747Z,5.90
2023-05-26T10:26:47.716Z,6.00
2023-05-26T10:27:47.707Z,5.70
2023-05-26T10:28:47.717Z,6.10
2023-05-26T10:29:47.697Z,5.80
2023-05-26T10:30:47.719Z,5.80
2023-05-26T10:31:47.713Z,5.90
2023-05-26T10:32:47.780Z,6.00
2023-05-26T10:33:47.672Z,6.10
2023-05-26T10:34:47.680Z,6.10
2023-05-26T10:35:47.686Z,5.80
2023-05-26T10:36:47.720Z,5.80
2023-05-26T10:37:47.632Z,5.90
2023-05-26T10:38:47.659Z,5.70
2023-05-26T10:39:49.827Z,6.00
2023-05-26T10:40:47.610Z,6.00
2023-05-26T10:41:47.605Z,5.90
2023-05-26T10:42:47.594Z,5.80
2023-05-26T10:43:47.591Z,5.40
2023-05-26T10:44:47.627Z,5.90
2023-05-26T10:45:47.610Z,5.70
2023-05-26T10:46:47.743Z,6.20
2023-05-26T10:47:47.653Z,5.90
2023-05-26T10:48:47.579Z,6.00
2023-05-26T10:49:47.593Z,6.30
2023-05-26T10:50:47.546Z,6.60
2023-05-26T10:51:47.535Z,6.40
2023-05-26T10:52:47.537Z,6.70
2023-05-26T10:53:47.552Z,6.10
2023-05-26T10:54:47.544Z,6.20
2023-05-26T10:55:47.503Z,6.00
2023-05-26T10:56:47.513Z,6.20
2023-05-26T10:57:47.481Z,6.00
2023-05-26T10:58:47.538Z,6.20
2023-05-26T10:59:47.474Z,6.10
2023-05-26T11:00:47.568Z,6.30
2023-05-26T11:01:47.525Z,6.90
2023-05-26T11:02:47.512Z,6.50
2023-05-26T11:03:47.678Z,5.90
2023-05-26T11:04:47.425Z,6.20
2023-05-26T11:05:47.423Z,5.20
2023-05-26T11:06:47.509Z,5.40
2023-05-26T11:07:47.500Z,5.20
2023-05-26T11:08:47.438Z,5.60
2023-05-26T11:09:47.409Z,5.80
2023-05-26T11:10:47.454Z,6.10
2023-05-26T11:11:47.378Z,5.90
2023-05-26T11:12:47.475Z,5.80
2023-05-26T11:13:47.397Z,6.20
2023-05-26T11:14:47.382Z,6.10
2023-05-26T11:15:47.361Z,6.40
2023-05-26T11:16:47.366Z,6.60
2023-05-26T11:17:47.433Z,6.30
2023-05-26T11:18:47.336Z,6.30
2023-05-26T11:19:47.355Z,6.40
2023-05-26T11:20:47.372Z,6.70
2023-05-26T11:21:47.302Z,6.20
2023-05-26T11:22:47.329Z,6.20
2023-05-26T11:23:47.298Z,6.50
2023-05-26T11:24:47.425Z,6.60
2023-05-26T11:25:47.309Z,5.70
2023-05-26T11:26:47.298Z,6.00
2023-05-26T11:27:47.293Z,6.20
2023-05-26T11:28:47.264Z,6.40
2023-05-26T11:29:47.245Z,5.90
2023-05-26T11:30:47.248Z,6.50
2023-05-26T11:31:48.203Z,5.90
2023-05-26T11:32:47.271Z,6.10
2023-05-26T11:33:47.226Z,6.00
2023-05-26T11:34:47.200Z,6.10
2023-05-26T11:35:47.205Z,6.30
2023-05-26T11:36:47.228Z,6.00
2023-05-26T11:37:47.191Z,5.80
2023-05-26T11:38:47.176Z,5.70
2023-05-26T11:39:47.176Z,6.00
2023-05-26T11:40:47.218Z,5.90
2023-05-26T11:41:47.199Z,5.90
2023-05-26T11:42:47.160Z,5.90
2023-05-26T11:43:47.156Z,6.10
2023-05-26T11:44:47.126Z,6.40
2023-05-26T11:45:47.158Z,6.10
2023-05-26T11:46:47.129Z,6.20
2023-05-26T11:47:47.175Z,5.70
2023-05-26T11:48:47.100Z,5.90
2023-05-26T11:49:47.085Z,6.30
2023-05-26T11:50:47.108Z,5.60
2023-05-26T11:51:47.100Z,5.60
2023-05-26T11:52:47.076Z,6.00
2023-05-26T11:53:47.074Z,5.70
2023-05-26T11:54:47.071Z,6.00
2023-05-26T11:55:47.078Z,5.80
2023-05-26T11:56:47.044Z,5.40
2023-05-26T11:57:47.031Z,6.10
2023-05-26T11:58:47.052Z,5.60
2023-05-26T11:59:47.036Z,5.70
2023-05-26T12:00:47.030Z,5.90
2023-05-26T12:01:47.102Z,6.20
2023-05-26T12:02:47.096Z,5.70
2023-05-26T12:03:47.011Z,6.30
2023-05-26T12:04:47.012Z,6.20
2023-05-26T12:05:47.192Z,6.00
2023-05-26T12:06:46.968Z,5.70
2023-05-26T12:07:46.953Z,6.00
2023-05-26T12:08:46.959Z,5.70
2023-05-26T12:09:46.966Z,6.10
2023-05-26T12:10:46.929Z,6.20
2023-05-26T12:11:46.921Z,5.90
2023-05-26T12:12:46.909Z,5.80
2023-05-26T12:13:46.894Z,6.10
2023-05-26T12:14:46.927Z,5.80
2023-05-26T12:15:46.878Z,6.20
2023-05-26T12:16:46.955Z,5.60
2023-05-26T12:17:46.955Z,6.00
2023-05-26T12:18:46.894Z,5.60
2023-05-26T12:19:46.885Z,5.40
2023-05-26T12:20:46.983Z,5.90
2023-05-26T12:21:46.876Z,5.90
2023-05-26T12:22:46.843Z,5.80
2023-05-26T12:23:46.879Z,6.20
2023-05-26T12:24:46.817Z,5.80
2023-05-26T12:25:46.816Z,5.70
2023-05-26T12:26:46.798Z,5.80
2023-05-26T12:27:46.788Z,5.80
2023-05-26T12:28:46.818Z,5.30
2023-05-26T12:29:46.782Z,5.20
2023-05-26T12:30:49.525Z,5.90
2023-05-26T12:31:47.811Z,5.80
2023-05-26T12:32:46.836Z,5.80
2023-05-26T12:33:46.778Z,5.60
2023-05-26T12:34:46.741Z,5.60
2023-05-26T12:35:46.737Z,5.70
2023-05-26T12:36:46.733Z,5.70
2023-05-26T12:37:46.756Z,5.90
2023-05-26T12:38:46.710Z,5.70
2023-05-26T12:39:46.697Z,5.70
2023-05-26T12:40:46.701Z,5.50
2023-05-26T12:41:46.696Z,5.50
2023-05-26T12:42:46.706Z,5.10
2023-05-26T12:43:46.675Z,5.70
2023-05-26T12:44:46.663Z,5.50
2023-05-26T12:45:46.664Z,5.50
2023-05-26T12:46:46.646Z,5.40
2023-05-26T12:47:46.762Z,5.80
2023-05-26T12:48:46.756Z,5.70
2023-05-26T12:49:46.624Z,5.30
2023-05-26T12:50:46.621Z,5.20
2023-05-26T12:51:46.637Z,5.30
2023-05-26T12:52:46.629Z,5.70
2023-05-26T12:53:46.591Z,5.50
2023-05-26T12:54:46.591Z,5.40
2023-05-26T12:55:46.584Z,5.40
2023-05-26T12:56:46.608Z,5.80
2023-05-26T12:57:46.569Z,5.50
2023-05-26T12:58:46.569Z,5.40
2023-05-26T12:59:46.571Z,5.40
2023-05-26T13:00:46.549Z,5.40
2023-05-26T13:01:46.750Z,5.50
2023-05-26T13:02:46.587Z,5.80
2023-05-26T13:03:46.601Z,5.70
2023-05-26T13:04:46.518Z,5.30
2023-05-26T13:05:46.532Z,5.50
2023-05-26T13:06:46.523Z,5.30
2023-05-26T13:07:46.490Z,5.30
2023-05-26T13:08:46.503Z,5.60
2023-05-26T13:09:46.484Z,5.70
2023-05-26T13:10:46.511Z,5.40
2023-05-26T13:11:46.492Z,5.30
2023-05-26T13:12:46.460Z,5.20
2023-05-26T13:13:46.455Z,5.40
2023-05-26T13:14:46.439Z,5.20
2023-05-26T13:15:46.547Z,5.50